createdAt,value
2017-05-07T00:00:32.327Z,63.80
2017-05-07T00:03:00.593Z,63.40
2017-05-07T00:05:27.975Z,63.00
2017-05-07T00:07:55.829Z,63.10
2017-05-07T00:10:23.176Z,63.50
2017-05-07T00:12:50.606Z,63.80
2017-05-07T00:15:17.949Z,63.50
2017-05-07T00:17:45.348Z,63.40
2017-05-07T00:20:15.885Z,62.90
2017-05-07T00:22:43.276Z,63.40
2017-05-07T00:25:10.688Z,63.60
2017-05-07T00:27:38.142Z,63.40
2017-05-07T00:30:05.519Z,63.50
2017-05-07T00:32:34.632Z,63.70
2017-05-07T00:35:02.188Z,63.90
2017-05-07T00:37:29.558Z,63.40
2017-05-07T00:39:59.933Z,63.20
2017-05-07T00:42:27.313Z,63.40
2017-05-07T00:44:54.786Z,63.50
2017-05-07T00:47:22.901Z,63.80
2017-05-07T00:49:50.231Z,63.40
2017-05-07T00:52:17.613Z,63.80
2017-05-07T00:54:44.963Z,64.10
2017-05-07T00:57:12.462Z,64.00
2017-05-07T00:59:39.829Z,63.60
2017-05-07T01:02:07.922Z,63.30
2017-05-07T01:04:35.513Z,64.00
2017-05-07T01:07:02.868Z,63.60
2017-05-07T01:09:30.246Z,63.70
2017-05-07T01:11:57.614Z,64.20
2017-05-07T01:14:26.106Z,64.30
2017-05-07T01:16:54.354Z,64.50
2017-05-07T01:19:21.887Z,64.50
2017-05-07T01:21:49.381Z,64.70
2017-05-07T01:24:16.775Z,64.70
2017-05-07T01:26:44.228Z,64.90
2017-05-07T01:29:11.725Z,64.70
2017-05-07T01:31:39.479Z,64.90
2017-05-07T01:34:06.838Z,64.80
2017-05-07T01:36:34.252Z,65.00
2017-05-07T01:39:01.660Z,65.50
2017-05-07T01:41:30.262Z,64.40
2017-05-07T01:43:57.809Z,64.20
2017-05-07T01:46:25.238Z,64.50
2017-05-07T01:48:52.843Z,64.70
2017-05-07T01:51:20.214Z,65.00
2017-05-07T01:53:47.676Z,65.10
2017-05-07T01:56:15.232Z,65.10
2017-05-07T01:58:42.665Z,65.60
2017-05-07T02:01:10.796Z,65.70
2017-05-07T02:03:38.152Z,65.80
2017-05-07T02:06:05.515Z,65.80
2017-05-07T02:08:32.861Z,65.60
2017-05-07T02:11:02.026Z,66.80
2017-05-07T02:13:29.400Z,66.20
2017-05-07T02:15:56.786Z,66.20
2017-05-07T02:18:24.288Z,65.90
2017-05-07T02:20:52.465Z,66.10
2017-05-07T02:23:20.541Z,65.80
2017-05-07T02:25:47.941Z,66.00
2017-05-07T02:28:16.597Z,66.10
2017-05-07T02:30:44.088Z,66.10
2017-05-07T02:33:12.246Z,66.40
2017-05-07T02:35:39.851Z,66.50
2017-05-07T02:38:08.098Z,66.40
2017-05-07T02:40:35.572Z,66.70
2017-05-07T02:43:03.963Z,66.90
2017-05-07T02:45:32.166Z,66.70
2017-05-07T02:47:59.799Z,67.00
2017-05-07T02:50:27.131Z,67.20
2017-05-07T02:52:54.582Z,67.30
2017-05-07T02:55:22.121Z,67.30
2017-05-07T02:57:49.594Z,67.40
2017-05-07T03:00:16.954Z,66.80
2017-05-07T03:02:46.337Z,67.40
2017-05-07T03:05:14.514Z,67.30
2017-05-07T03:07:42.156Z,67.40
2017-05-07T03:10:09.496Z,67.40
2017-05-07T03:12:36.878Z,67.40
2017-05-07T03:15:04.727Z,67.20
2017-05-07T03:17:32.247Z,67.00
2017-05-07T03:20:00.325Z,67.20
2017-05-07T03:22:28.735Z,67.80
2017-05-07T03:24:56.146Z,68.20
2017-05-07T03:27:24.277Z,68.90
2017-05-07T03:29:51.739Z,69.40
2017-05-07T03:32:19.165Z,69.70
2017-05-07T03:34:46.668Z,69.70
2017-05-07T03:37:15.058Z,69.40
2017-05-07T03:39:43.277Z,69.40
2017-05-07T03:42:10.675Z,70.30
2017-05-07T03:44:38.037Z,69.50
2017-05-07T03:47:06.425Z,70.50
2017-05-07T03:49:33.849Z,71.30
2017-05-07T03:52:01.502Z,70.70
2017-05-07T03:54:28.939Z,70.50
2017-05-07T03:56:56.366Z,71.30
2017-05-07T03:59:25.108Z,71.60
2017-05-07T04:01:52.556Z,71.80
2017-05-07T04:04:20.024Z,71.60
2017-05-07T04:06:47.391Z,72.00
2017-05-07T04:09:15.649Z,72.40
2017-05-07T04:11:43.027Z,72.30
2017-05-07T04:14:33.038Z,72.40
2017-05-07T04:17:00.467Z,72.70
2017-05-07T04:19:27.877Z,72.70
2017-05-07T04:21:55.302Z,73.80
2017-05-07T04:24:24.215Z,73.60
2017-05-07T04:26:51.618Z,73.50
2017-05-07T04:29:19.546Z,73.80
2017-05-07T04:31:47.900Z,74.00
2017-05-07T04:34:15.991Z,73.90
2017-05-07T04:36:43.390Z,74.00
2017-05-07T04:39:10.791Z,75.00
2017-05-07T04:41:38.160Z,73.70
2017-05-07T04:44:05.544Z,73.40
2017-05-07T04:46:33.020Z,72.70
2017-05-07T04:49:02.154Z,73.40
2017-05-07T04:51:29.517Z,74.30
2017-05-07T04:53:56.964Z,73.70
2017-05-07T04:56:24.531Z,74.10
2017-05-07T04:58:51.919Z,74.30
2017-05-07T05:01:20.267Z,74.60
2017-05-07T05:03:47.654Z,74.70
2017-05-07T05:06:15.080Z,75.00
2017-05-07T05:08:42.436Z,75.00
2017-05-07T05:11:09.865Z,75.50
2017-05-07T05:13:37.232Z,75.20
2017-05-07T05:16:04.661Z,74.90
2017-05-07T05:18:33.087Z,74.70
2017-05-07T05:21:11.017Z,74.60
2017-05-07T05:24:15.133Z,75.00
2017-05-07T05:26:46.245Z,75.00
2017-05-07T05:32:18.310Z,74.50
2017-05-07T05:34:45.703Z,75.10
2017-05-07T05:37:13.530Z,74.90
2017-05-07T05:39:40.924Z,75.00
2017-05-07T05:42:08.493Z,74.70
2017-05-07T05:44:42.932Z,75.10
2017-05-07T05:47:11.118Z,73.90
2017-05-07T05:49:39.295Z,73.40
2017-05-07T05:52:07.179Z,73.40
2017-05-07T05:54:34.567Z,73.00
2017-05-07T05:57:02.063Z,72.50
2017-05-07T05:59:30.508Z,71.90
2017-05-07T06:01:57.898Z,71.90
2017-05-07T06:04:26.650Z,71.60
2017-05-07T06:06:54.114Z,71.30
2017-05-07T06:09:21.539Z,69.90
2017-05-07T06:11:49.215Z,69.80
2017-05-07T06:14:16.725Z,70.50
2017-05-07T06:16:44.443Z,70.40
2017-05-07T06:19:12.100Z,70.50
2017-05-07T06:21:39.532Z,70.40
2017-05-07T06:24:07.220Z,69.70
2017-05-07T06:26:34.689Z,70.60
2017-05-07T06:29:02.904Z,70.90
2017-05-07T06:31:30.447Z,70.80
2017-05-07T06:33:58.083Z,70.20
2017-05-07T06:36:25.571Z,69.80
2017-05-07T06:38:53.019Z,69.10
2017-05-07T06:41:20.416Z,68.90
2017-05-07T06:43:47.874Z,68.00
2017-05-07T06:46:15.282Z,67.20
2017-05-07T06:48:43.652Z,66.70
2017-05-07T06:51:11.945Z,67.10
2017-05-07T06:53:39.338Z,66.70
2017-05-07T06:56:06.761Z,66.60
2017-05-07T06:58:34.916Z,66.80
2017-05-07T07:01:02.584Z,66.50
2017-05-07T07:03:30.954Z,65.60
2017-05-07T07:05:59.178Z,64.50
2017-05-07T07:08:27.654Z,65.50
2017-05-07T07:10:55.073Z,65.40
2017-05-07T07:13:23.295Z,65.50
2017-05-07T07:15:50.745Z,65.10
2017-05-07T07:18:18.238Z,65.40
2017-05-07T07:20:45.656Z,65.90
2017-05-07T07:23:14.174Z,65.60
2017-05-07T07:25:41.544Z,65.60
2017-05-07T07:28:09.716Z,65.40
2017-05-07T07:30:37.150Z,64.20
2017-05-07T07:33:06.692Z,63.80
2017-05-07T07:35:34.978Z,62.90
2017-05-07T07:38:02.421Z,63.80
2017-05-07T07:40:30.778Z,64.00
2017-05-07T07:42:59.069Z,66.20
2017-05-07T07:45:28.015Z,65.20
2017-05-07T07:47:56.329Z,64.90
2017-05-07T07:50:23.898Z,64.80
2017-05-07T07:52:52.109Z,64.80
2017-05-07T07:55:19.565Z,64.70
2017-05-07T07:57:47.023Z,63.70
2017-05-07T08:00:14.936Z,63.30
2017-05-07T08:02:42.413Z,63.70
2017-05-07T08:05:10.651Z,62.80
2017-05-07T08:07:38.189Z,62.70
2017-05-07T08:10:05.994Z,62.40
2017-05-07T08:12:33.765Z,62.30
2017-05-07T08:15:03.238Z,62.90
2017-05-07T08:17:30.917Z,62.40
2017-05-07T08:19:58.382Z,62.00
2017-05-07T08:22:28.189Z,62.10
2017-05-07T08:24:56.112Z,62.00
2017-05-07T08:27:24.382Z,61.80
2017-05-07T08:29:52.093Z,61.40
2017-05-07T08:32:19.721Z,60.10
2017-05-07T08:34:47.189Z,59.40
2017-05-07T08:37:20.598Z,58.60
2017-05-07T08:39:49.042Z,57.50
2017-05-07T08:42:16.606Z,58.10
2017-05-07T08:44:45.306Z,59.00
2017-05-07T08:47:12.881Z,59.20
2017-05-07T08:49:40.438Z,58.00
2017-05-07T08:52:07.951Z,56.60
2017-05-07T08:54:35.632Z,57.50
2017-05-07T08:57:03.038Z,55.90
2017-05-07T08:59:31.097Z,54.80
2017-05-07T09:01:58.517Z,52.30
2017-05-07T09:04:25.958Z,55.40
2017-05-07T09:06:53.496Z,51.90
2017-05-07T09:09:21.712Z,50.20
2017-05-07T09:12:05.364Z,49.90
2017-05-07T09:14:49.439Z,49.70
2017-05-07T09:17:49.707Z,50.50
2017-05-07T09:20:32.698Z,52.00
2017-05-07T09:23:00.754Z,54.60
2017-05-07T09:25:28.954Z,46.90
2017-05-07T09:27:56.513Z,45.40
2017-05-07T09:30:25.149Z,49.10
2017-05-07T09:32:53.224Z,41.60
2017-05-07T09:35:20.781Z,37.10
2017-05-07T09:37:49.352Z,34.60
2017-05-07T09:40:17.129Z,39.90
2017-05-07T09:42:44.883Z,44.80
2017-05-07T09:45:13.155Z,47.50
2017-05-07T09:47:42.386Z,47.00
2017-05-07T09:50:10.620Z,46.10
2017-05-07T09:52:38.186Z,43.90
2017-05-07T09:55:06.481Z,44.60
2017-05-07T09:57:34.718Z,46.70
2017-05-07T10:00:02.819Z,43.00
2017-05-07T10:02:31.044Z,40.60
2017-05-07T10:04:58.749Z,43.50
2017-05-07T10:07:26.666Z,41.10
2017-05-07T10:09:55.287Z,43.90
2017-05-07T10:12:23.052Z,46.20
2017-05-07T10:14:50.600Z,47.10
2017-05-07T10:17:18.180Z,47.90
2017-05-07T10:19:45.835Z,49.00
2017-05-07T10:22:13.403Z,48.70
2017-05-07T10:24:41.041Z,49.70
2017-05-07T10:27:09.770Z,50.30
2017-05-07T10:29:38.148Z,49.80
2017-05-07T10:32:06.648Z,50.50
2017-05-07T10:34:34.499Z,52.30
2017-05-07T10:37:02.742Z,52.40
2017-05-07T10:39:30.253Z,53.00
2017-05-07T10:41:57.929Z,52.50
2017-05-07T10:44:25.458Z,51.40
2017-05-07T10:46:53.757Z,51.40
2017-05-07T10:49:21.279Z,51.70
2017-05-07T10:51:48.985Z,50.80
2017-05-07T10:54:31.382Z,47.80
2017-05-07T10:56:58.939Z,44.40
2017-05-07T10:59:27.513Z,46.00
2017-05-07T11:01:56.921Z,47.10
2017-05-07T11:04:24.644Z,48.70
2017-05-07T11:06:52.188Z,50.20
2017-05-07T11:09:20.903Z,50.30
2017-05-07T11:11:49.173Z,44.90
2017-05-07T11:14:17.039Z,31.70
2017-05-07T11:16:44.573Z,27.00
2017-05-07T11:19:12.703Z,25.40
2017-05-07T11:21:40.621Z,27.20
2017-05-07T11:24:08.133Z,29.10
2017-05-07T11:26:35.679Z,28.30
2017-05-07T11:29:04.200Z,25.10
2017-05-07T11:31:33.045Z,23.40
2017-05-07T11:34:00.684Z,25.10
2017-05-07T11:36:29.106Z,26.80
2017-05-07T11:38:59.991Z,26.10
2017-05-07T11:41:27.986Z,24.50
2017-05-07T11:43:55.687Z,24.90
2017-05-07T11:46:23.442Z,23.50
2017-05-07T11:48:51.007Z,22.30
2017-05-07T11:51:18.586Z,29.80
2017-05-07T11:53:46.093Z,45.70
2017-05-07T11:56:15.210Z,54.20
